sensor_id;sensor_type;location;lat;lon;timestamp;P1;durP1;ratioP1;P2;durP2;ratioP2
12048;SDS011;6085;49.452;8.502;2022-12-29T00:02:22;1.50;;;1.40;;
12048;SDS011;6085;49.452;8.502;2022-12-29T00:06:24;2.15;;;1.70;;
12048;SDS011;6085;49.452;8.502;2022-12-29T00:10:26;2.08;;;1.52;;
12048;SDS011;6085;49.452;8.502;2022-12-29T00:14:28;2.13;;;1.33;;
12048;SDS011;6085;49.452;8.502;2022-12-29T00:18:49;2.38;;;1.65;;
12048;SDS011;6085;49.452;8.502;2022-12-29T00:22:51;1.80;;;1.42;;
12048;SDS011;6085;49.452;8.502;2022-12-29T00:27:21;1.95;;;1.40;;
12048;SDS011;6085;49.452;8.502;2022-12-29T00:31:41;1.20;;;1.10;;
12048;SDS011;6085;49.452;8.502;2022-12-29T00:36:02;1.30;;;1.20;;
12048;SDS011;6085;49.452;8.502;2022-12-29T00:40:07;1.48;;;1.38;;
12048;SDS011;6085;49.452;8.502;2022-12-29T00:44:27;1.67;;;1.50;;
12048;SDS011;6085;49.452;8.502;2022-12-29T00:48:28;1.95;;;1.58;;
12048;SDS011;6085;49.452;8.502;2022-12-29T00:52:49;1.60;;;1.50;;
12048;SDS011;6085;49.452;8.502;2022-12-29T00:56:51;2.65;;;1.30;;
12048;SDS011;6085;49.452;8.502;2022-12-29T01:01:00;1.70;;;1.60;;
12048;SDS011;6085;49.452;8.502;2022-12-29T01:05:03;2.22;;;1.55;;
12048;SDS011;6085;49.452;8.502;2022-12-29T01:09:07;1.80;;;1.70;;
12048;SDS011;6085;49.452;8.502;2022-12-29T01:13:27;1.50;;;1.40;;
12048;SDS011;6085;49.452;8.502;2022-12-29T01:17:29;1.90;;;1.52;;
12048;SDS011;6085;49.452;8.502;2022-12-29T01:21:30;1.88;;;1.40;;
12048;SDS011;6085;49.452;8.502;2022-12-29T01:25:34;2.13;;;1.50;;
12048;SDS011;6085;49.452;8.502;2022-12-29T01:29:36;1.98;;;1.42;;
12048;SDS011;6085;49.452;8.502;2022-12-29T01:33:38;1.00;;;1.00;;
12048;SDS011;6085;49.452;8.502;2022-12-29T01:37:40;1.35;;;1.20;;
12048;SDS011;6085;49.452;8.502;2022-12-29T01:41:43;1.20;;;1.05;;
12048;SDS011;6085;49.452;8.502;2022-12-29T01:45:45;1.35;;;1.05;;
12048;SDS011;6085;49.452;8.502;2022-12-29T01:49:52;1.30;;;1.10;;
12048;SDS011;6085;49.452;8.502;2022-12-29T01:53:57;1.42;;;0.93;;
12048;SDS011;6085;49.452;8.502;2022-12-29T01:58:03;1.23;;;0.80;;
12048;SDS011;6085;49.452;8.502;2022-12-29T02:02:06;0.88;;;0.70;;
12048;SDS011;6085;49.452;8.502;2022-12-29T02:06:10;1.00;;;0.80;;
12048;SDS011;6085;49.452;8.502;2022-12-29T02:10:16;0.80;;;0.80;;
12048;SDS011;6085;49.452;8.502;2022-12-29T02:14:21;1.00;;;0.77;;
12048;SDS011;6085;49.452;8.502;2022-12-29T02:18:26;1.25;;;1.13;;
12048;SDS011;6085;49.452;8.502;2022-12-29T02:22:36;1.08;;;1.05;;
12048;SDS011;6085;49.452;8.502;2022-12-29T02:27:12;2.65;;;1.00;;
12048;SDS011;6085;49.452;8.502;2022-12-29T02:31:35;1.17;;;1.15;;
12048;SDS011;6085;49.452;8.502;2022-12-29T02:35:48;1.10;;;1.00;;
12048;SDS011;6085;49.452;8.502;2022-12-29T02:39:59;1.02;;;1.00;;
12048;SDS011;6085;49.452;8.502;2022-12-29T02:44:08;0.70;;;0.70;;
12048;SDS011;6085;49.452;8.502;2022-12-29T02:48:17;1.02;;;0.90;;
12048;SDS011;6085;49.452;8.502;2022-12-29T02:52:25;1.25;;;1.15;;
12048;SDS011;6085;49.452;8.502;2022-12-29T02:56:30;1.20;;;1.10;;
12048;SDS011;6085;49.452;8.502;2022-12-29T03:00:32;1.25;;;1.10;;
12048;SDS011;6085;49.452;8.502;2022-12-29T03:04:38;1.30;;;1.20;;
12048;SDS011;6085;49.452;8.502;2022-12-29T03:08:51;1.15;;;1.05;;
12048;SDS011;6085;49.452;8.502;2022-12-29T03:12:56;1.83;;;1.10;;
12048;SDS011;6085;49.452;8.502;2022-12-29T03:17:24;1.15;;;1.05;;
12048;SDS011;6085;49.452;8.502;2022-12-29T03:21:34;1.25;;;1.15;;
12048;SDS011;6085;49.452;8.502;2022-12-29T03:25:58;1.63;;;1.00;;
12048;SDS011;6085;49.452;8.502;2022-12-29T03:30:04;0.90;;;0.90;;
12048;SDS011;6085;49.452;8.502;2022-12-29T03:34:09;1.30;;;1.20;;
12048;SDS011;6085;49.452;8.502;2022-12-29T03:38:14;0.88;;;0.88;;
12048;SDS011;6085;49.452;8.502;2022-12-29T03:42:21;1.42;;;1.08;;
12048;SDS011;6085;49.452;8.502;2022-12-29T03:46:27;2.60;;;0.82;;
12048;SDS011;6085;49.452;8.502;2022-12-29T03:50:28;2.83;;;1.30;;
12048;SDS011;6085;49.452;8.502;2022-12-29T03:54:32;2.38;;;1.08;;
12048;SDS011;6085;49.452;8.502;2022-12-29T03:58:34;1.10;;;0.95;;
12048;SDS011;6085;49.452;8.502;2022-12-29T04:02:36;2.45;;;1.10;;
12048;SDS011;6085;49.452;8.502;2022-12-29T04:06:37;1.73;;;1.30;;
12048;SDS011;6085;49.452;8.502;2022-12-29T04:10:41;1.70;;;1.35;;
12048;SDS011;6085;49.452;8.502;2022-12-29T04:14:43;1.42;;;1.10;;
12048;SDS011;6085;49.452;8.502;2022-12-29T04:18:44;1.13;;;1.02;;
12048;SDS011;6085;49.452;8.502;2022-12-29T04:22:46;2.33;;;1.15;;
12048;SDS011;6085;49.452;8.502;2022-12-29T04:26:49;1.65;;;1.10;;
12048;SDS011;6085;49.452;8.502;2022-12-29T04:30:51;1.58;;;0.93;;
12048;SDS011;6085;49.452;8.502;2022-12-29T04:34:53;1.10;;;1.00;;
12048;SDS011;6085;49.452;8.502;2022-12-29T04:38:55;1.35;;;1.15;;
12048;SDS011;6085;49.452;8.502;2022-12-29T04:42:58;1.35;;;0.90;;
12048;SDS011;6085;49.452;8.502;2022-12-29T04:47:00;0.93;;;0.80;;
12048;SDS011;6085;49.452;8.502;2022-12-29T04:51:01;0.98;;;0.88;;
12048;SDS011;6085;49.452;8.502;2022-12-29T04:55:04;1.13;;;0.80;;
12048;SDS011;6085;49.452;8.502;2022-12-29T04:59:07;0.90;;;0.90;;
12048;SDS011;6085;49.452;8.502;2022-12-29T05:03:09;0.98;;;0.90;;
12048;SDS011;6085;49.452;8.502;2022-12-29T05:07:11;1.25;;;0.95;;
12048;SDS011;6085;49.452;8.502;2022-12-29T05:11:13;1.88;;;1.08;;
12048;SDS011;6085;49.452;8.502;2022-12-29T05:15:17;1.67;;;0.82;;
12048;SDS011;6085;49.452;8.502;2022-12-29T05:19:19;1.00;;;0.90;;
12048;SDS011;6085;49.452;8.502;2022-12-29T05:23:21;1.67;;;0.90;;
12048;SDS011;6085;49.452;8.502;2022-12-29T05:27:23;0.85;;;0.85;;
12048;SDS011;6085;49.452;8.502;2022-12-29T05:31:26;0.77;;;0.77;;
12048;SDS011;6085;49.452;8.502;2022-12-29T05:35:28;0.68;;;0.68;;
12048;SDS011;6085;49.452;8.502;2022-12-29T05:39:29;1.17;;;0.95;;
12048;SDS011;6085;49.452;8.502;2022-12-29T05:43:31;1.00;;;0.90;;
12048;SDS011;6085;49.452;8.502;2022-12-29T05:47:35;1.77;;;1.10;;
12048;SDS011;6085;49.452;8.502;2022-12-29T05:51:36;1.58;;;1.02;;
12048;SDS011;6085;49.452;8.502;2022-12-29T05:55:38;1.30;;;1.20;;
12048;SDS011;6085;49.452;8.502;2022-12-29T05:59:40;1.48;;;1.10;;
12048;SDS011;6085;49.452;8.502;2022-12-29T06:03:43;2.28;;;1.05;;
12048;SDS011;6085;49.452;8.502;2022-12-29T06:07:45;1.88;;;1.08;;
12048;SDS011;6085;49.452;8.502;2022-12-29T06:11:47;2.00;;;1.10;;
12048;SDS011;6085;49.452;8.502;2022-12-29T06:15:49;0.90;;;0.88;;
12048;SDS011;6085;49.452;8.502;2022-12-29T06:19:52;1.77;;;1.05;;
12048;SDS011;6085;49.452;8.502;2022-12-29T06:23:54;1.05;;;1.05;;
12048;SDS011;6085;49.452;8.502;2022-12-29T06:27:56;1.13;;;1.10;;
12048;SDS011;6085;49.452;8.502;2022-12-29T06:31:57;2.83;;;1.15;;
12048;SDS011;6085;49.452;8.502;2022-12-29T06:36:00;1.45;;;1.05;;
12048;SDS011;6085;49.452;8.502;2022-12-29T06:40:02;1.25;;;1.10;;
12048;SDS011;6085;49.452;8.502;2022-12-29T06:44:05;1.73;;;1.30;;
12048;SDS011;6085;49.452;8.502;2022-12-29T06:48:07;1.58;;;1.25;;
12048;SDS011;6085;49.452;8.502;2022-12-29T06:52:10;1.75;;;0.90;;
12048;SDS011;6085;49.452;8.502;2022-12-29T06:56:12;2.05;;;1.38;;
12048;SDS011;6085;49.452;8.502;2022-12-29T07:00:14;1.50;;;1.40;;
12048;SDS011;6085;49.452;8.502;2022-12-29T07:04:17;1.10;;;1.08;;
12048;SDS011;6085;49.452;8.502;2022-12-29T07:08:20;1.65;;;1.42;;
12048;SDS011;6085;49.452;8.502;2022-12-29T07:12:22;1.60;;;1.23;;
12048;SDS011;6085;49.452;8.502;2022-12-29T07:16:24;2.58;;;1.13;;
12048;SDS011;6085;49.452;8.502;2022-12-29T07:20:25;2.35;;;1.10;;
12048;SDS011;6085;49.452;8.502;2022-12-29T07:24:29;3.60;;;1.80;;
12048;SDS011;6085;49.452;8.502;2022-12-29T07:28:31;2.47;;;1.77;;
12048;SDS011;6085;49.452;8.502;2022-12-29T07:32:33;2.72;;;1.10;;
12048;SDS011;6085;49.452;8.502;2022-12-29T07:36:36;2.15;;;1.45;;
12048;SDS011;6085;49.452;8.502;2022-12-29T07:40:39;1.50;;;1.30;;
12048;SDS011;6085;49.452;8.502;2022-12-29T07:44:40;2.15;;;1.38;;
12048;SDS011;6085;49.452;8.502;2022-12-29T07:48:42;1.58;;;1.38;;
12048;SDS011;6085;49.452;8.502;2022-12-29T07:52:44;1.70;;;1.30;;
12048;SDS011;6085;49.452;8.502;2022-12-29T07:56:49;1.90;;;1.48;;
12048;SDS011;6085;49.452;8.502;2022-12-29T08:00:52;1.58;;;1.40;;
12048;SDS011;6085;49.452;8.502;2022-12-29T08:04:54;2.20;;;1.40;;
12048;SDS011;6085;49.452;8.502;2022-12-29T08:08:56;2.22;;;1.33;;
12048;SDS011;6085;49.452;8.502;2022-12-29T08:13:01;1.40;;;1.30;;
12048;SDS011;6085;49.452;8.502;2022-12-29T08:17:03;2.58;;;1.30;;
12048;SDS011;6085;49.452;8.502;2022-12-29T08:21:05;1.88;;;1.40;;
12048;SDS011;6085;49.452;8.502;2022-12-29T08:25:07;1.67;;;1.30;;
12048;SDS011;6085;49.452;8.502;2022-12-29T08:29:11;2.42;;;1.13;;
12048;SDS011;6085;49.452;8.502;2022-12-29T08:33:12;1.65;;;1.55;;
12048;SDS011;6085;49.452;8.502;2022-12-29T08:37:14;3.47;;;1.85;;
12048;SDS011;6085;49.452;8.502;2022-12-29T08:41:16;2.65;;;1.60;;
12048;SDS011;6085;49.452;8.502;2022-12-29T08:45:19;2.55;;;1.42;;
12048;SDS011;6085;49.452;8.502;2022-12-29T08:49:21;2.97;;;1.50;;
12048;SDS011;6085;49.452;8.502;2022-12-29T08:53:23;2.08;;;1.52;;
12048;SDS011;6085;49.452;8.502;2022-12-29T08:57:24;1.52;;;1.38;;
12048;SDS011;6085;49.452;8.502;2022-12-29T09:01:28;1.33;;;1.23;;
12048;SDS011;6085;49.452;8.502;2022-12-29T09:05:30;1.90;;;1.58;;
12048;SDS011;6085;49.452;8.502;2022-12-29T09:09:32;1.50;;;1.40;;
12048;SDS011;6085;49.452;8.502;2022-12-29T09:13:34;1.92;;;1.20;;
12048;SDS011;6085;49.452;8.502;2022-12-29T09:17:37;1.40;;;1.30;;
12048;SDS011;6085;49.452;8.502;2022-12-29T09:21:43;1.98;;;1.55;;
12048;SDS011;6085;49.452;8.502;2022-12-29T09:25:45;2.15;;;1.90;;
12048;SDS011;6085;49.452;8.502;2022-12-29T09:29:48;3.03;;;1.67;;
12048;SDS011;6085;49.452;8.502;2022-12-29T09:33:51;1.73;;;1.50;;
12048;SDS011;6085;49.452;8.502;2022-12-29T09:37:53;1.83;;;1.60;;
12048;SDS011;6085;49.452;8.502;2022-12-29T09:41:57;2.03;;;1.55;;
12048;SDS011;6085;49.452;8.502;2022-12-29T09:46:08;1.75;;;1.20;;
12048;SDS011;6085;49.452;8.502;2022-12-29T09:50:22;2.50;;;1.52;;
12048;SDS011;6085;49.452;8.502;2022-12-29T09:54:33;1.40;;;1.30;;
12048;SDS011;6085;49.452;8.502;2022-12-29T09:58:42;3.72;;;1.92;;
12048;SDS011;6085;49.452;8.502;2022-12-29T10:02:51;2.22;;;1.42;;
12048;SDS011;6085;49.452;8.502;2022-12-29T10:07:01;1.45;;;1.20;;
12048;SDS011;6085;49.452;8.502;2022-12-29T10:11:12;2.03;;;1.75;;
12048;SDS011;6085;49.452;8.502;2022-12-29T10:15:38;2.20;;;1.27;;
12048;SDS011;6085;49.452;8.502;2022-12-29T10:19:51;1.23;;;1.23;;
12048;SDS011;6085;49.452;8.502;2022-12-29T10:23:59;1.88;;;1.67;;
12048;SDS011;6085;49.452;8.502;2022-12-29T10:28:06;1.83;;;1.60;;
12048;SDS011;6085;49.452;8.502;2022-12-29T10:32:22;1.77;;;1.65;;
12048;SDS011;6085;49.452;8.502;2022-12-29T10:36:29;2.72;;;1.83;;
12048;SDS011;6085;49.452;8.502;2022-12-29T10:40:38;1.58;;;1.45;;
12048;SDS011;6085;49.452;8.502;2022-12-29T10:44:44;2.17;;;1.60;;
12048;SDS011;6085;49.452;8.502;2022-12-29T10:48:46;4.28;;;1.80;;
12048;SDS011;6085;49.452;8.502;2022-12-29T10:52:48;1.48;;;1.38;;
12048;SDS011;6085;49.452;8.502;2022-12-29T10:56:52;1.50;;;1.40;;
12048;SDS011;6085;49.452;8.502;2022-12-29T11:00:55;3.08;;;1.58;;
12048;SDS011;6085;49.452;8.502;2022-12-29T11:04:59;1.45;;;1.23;;
12048;SDS011;6085;49.452;8.502;2022-12-29T11:09:08;2.00;;;1.27;;
12048;SDS011;6085;49.452;8.502;2022-12-29T11:13:18;2.00;;;1.20;;
12048;SDS011;6085;49.452;8.502;2022-12-29T11:17:25;2.08;;;1.30;;
12048;SDS011;6085;49.452;8.502;2022-12-29T11:21:30;2.20;;;1.40;;
12048;SDS011;6085;49.452;8.502;2022-12-29T11:25:34;3.03;;;1.50;;
12048;SDS011;6085;49.452;8.502;2022-12-29T11:29:38;1.52;;;1.13;;
12048;SDS011;6085;49.452;8.502;2022-12-29T11:33:41;1.40;;;1.30;;
12048;SDS011;6085;49.452;8.502;2022-12-29T11:37:43;1.40;;;1.30;;
12048;SDS011;6085;49.452;8.502;2022-12-29T11:41:46;1.50;;;1.40;;
12048;SDS011;6085;49.452;8.502;2022-12-29T11:45:55;4.30;;;1.35;;
12048;SDS011;6085;49.452;8.502;2022-12-29T11:49:58;1.77;;;1.45;;
12048;SDS011;6085;49.452;8.502;2022-12-29T11:54:02;1.48;;;1.38;;
12048;SDS011;6085;49.452;8.502;2022-12-29T11:58:05;1.88;;;1.35;;
12048;SDS011;6085;49.452;8.502;2022-12-29T12:06:43;1.42;;;1.33;;
12048;SDS011;6085;49.452;8.502;2022-12-29T12:10:50;1.50;;;1.20;;
12048;SDS011;6085;49.452;8.502;2022-12-29T12:14:58;3.13;;;1.05;;
12048;SDS011;6085;49.452;8.502;2022-12-29T12:19:03;1.35;;;0.70;;
12048;SDS011;6085;49.452;8.502;2022-12-29T12:23:15;1.48;;;0.85;;
12048;SDS011;6085;49.452;8.502;2022-12-29T12:27:28;1.80;;;0.80;;
12048;SDS011;6085;49.452;8.502;2022-12-29T12:31:39;2.15;;;1.00;;
12048;SDS011;6085;49.452;8.502;2022-12-29T12:35:51;1.70;;;0.90;;
12048;SDS011;6085;49.452;8.502;2022-12-29T12:44:47;0.98;;;0.90;;
12048;SDS011;6085;49.452;8.502;2022-12-29T12:49:11;2.60;;;1.08;;
12048;SDS011;6085;49.452;8.502;2022-12-29T12:53:47;1.25;;;1.15;;
12048;SDS011;6085;49.452;8.502;2022-12-29T12:58:00;1.73;;;1.15;;
12048;SDS011;6085;49.452;8.502;2022-12-29T13:02:14;1.33;;;1.23;;
12048;SDS011;6085;49.452;8.502;2022-12-29T13:06:31;1.00;;;1.00;;
12048;SDS011;6085;49.452;8.502;2022-12-29T13:10:45;1.23;;;0.90;;
12048;SDS011;6085;49.452;8.502;2022-12-29T13:14:55;0.93;;;0.82;;
12048;SDS011;6085;49.452;8.502;2022-12-29T13:19:07;0.75;;;0.75;;
12048;SDS011;6085;49.452;8.502;2022-12-29T13:23:16;1.30;;;1.10;;
12048;SDS011;6085;49.452;8.502;2022-12-29T13:27:27;1.35;;;1.10;;
12048;SDS011;6085;49.452;8.502;2022-12-29T13:31:41;0.73;;;0.68;;
12048;SDS011;6085;49.452;8.502;2022-12-29T13:35:56;1.02;;;0.82;;
12048;SDS011;6085;49.452;8.502;2022-12-29T13:40:02;1.20;;;0.80;;
12048;SDS011;6085;49.452;8.502;2022-12-29T13:44:15;0.82;;;0.60;;
12048;SDS011;6085;49.452;8.502;2022-12-29T13:48:21;1.48;;;0.70;;
12048;SDS011;6085;49.452;8.502;2022-12-29T13:52:32;0.52;;;0.52;;
12048;SDS011;6085;49.452;8.502;2022-12-29T13:56:41;1.15;;;0.57;;
12048;SDS011;6085;49.452;8.502;2022-12-29T14:00:53;1.52;;;0.77;;
12048;SDS011;6085;49.452;8.502;2022-12-29T14:04:59;1.15;;;0.43;;
12048;SDS011;6085;49.452;8.502;2022-12-29T14:09:04;0.45;;;0.45;;
12048;SDS011;6085;49.452;8.502;2022-12-29T14:13:10;1.15;;;0.45;;
12048;SDS011;6085;49.452;8.502;2022-12-29T14:17:18;0.60;;;0.45;;
12048;SDS011;6085;49.452;8.502;2022-12-29T14:21:22;2.92;;;0.40;;
12048;SDS011;6085;49.452;8.502;2022-12-29T14:30:01;2.63;;;0.88;;
12048;SDS011;6085;49.452;8.502;2022-12-29T14:34:22;0.73;;;0.50;;
12048;SDS011;6085;49.452;8.502;2022-12-29T14:38:34;2.03;;;0.60;;
12048;SDS011;6085;49.452;8.502;2022-12-29T14:42:46;1.02;;;0.55;;
12048;SDS011;6085;49.452;8.502;2022-12-29T14:46:53;1.23;;;1.02;;
12048;SDS011;6085;49.452;8.502;2022-12-29T14:50:59;0.85;;;0.55;;
12048;SDS011;6085;49.452;8.502;2022-12-29T14:59:33;0.75;;;0.50;;
12048;SDS011;6085;49.452;8.502;2022-12-29T15:03:38;1.73;;;0.85;;
12048;SDS011;6085;49.452;8.502;2022-12-29T15:07:47;1.15;;;0.60;;
12048;SDS011;6085;49.452;8.502;2022-12-29T15:11:51;1.10;;;0.68;;
12048;SDS011;6085;49.452;8.502;2022-12-29T15:15:54;1.85;;;0.57;;
12048;SDS011;6085;49.452;8.502;2022-12-29T15:19:56;2.03;;;1.17;;
12048;SDS011;6085;49.452;8.502;2022-12-29T15:24:01;0.85;;;0.85;;
12048;SDS011;6085;49.452;8.502;2022-12-29T15:28:05;0.75;;;0.55;;
12048;SDS011;6085;49.452;8.502;2022-12-29T15:32:18;1.83;;;0.70;;
12048;SDS011;6085;49.452;8.502;2022-12-29T15:36:23;1.27;;;0.60;;
12048;SDS011;6085;49.452;8.502;2022-12-29T15:40:28;1.08;;;0.63;;
12048;SDS011;6085;49.452;8.502;2022-12-29T15:44:32;2.15;;;0.90;;
12048;SDS011;6085;49.452;8.502;2022-12-29T15:48:38;1.90;;;0.90;;
12048;SDS011;6085;49.452;8.502;2022-12-29T15:52:41;1.52;;;0.80;;
12048;SDS011;6085;49.452;8.502;2022-12-29T15:56:44;1.33;;;0.75;;
12048;SDS011;6085;49.452;8.502;2022-12-29T16:00:47;0.82;;;0.63;;
12048;SDS011;6085;49.452;8.502;2022-12-29T16:04:49;2.08;;;1.23;;
12048;SDS011;6085;49.452;8.502;2022-12-29T16:08:55;2.13;;;0.85;;
12048;SDS011;6085;49.452;8.502;2022-12-29T16:13:02;1.27;;;0.93;;
12048;SDS011;6085;49.452;8.502;2022-12-29T16:17:09;2.05;;;1.05;;
12048;SDS011;6085;49.452;8.502;2022-12-29T16:21:16;0.88;;;0.88;;
12048;SDS011;6085;49.452;8.502;2022-12-29T16:25:21;1.40;;;0.95;;
12048;SDS011;6085;49.452;8.502;2022-12-29T16:29:27;1.52;;;0.70;;
12048;SDS011;6085;49.452;8.502;2022-12-29T16:33:44;1.45;;;0.80;;
12048;SDS011;6085;49.452;8.502;2022-12-29T16:37:48;2.10;;;0.85;;
12048;SDS011;6085;49.452;8.502;2022-12-29T16:46:36;0.80;;;0.80;;
12048;SDS011;6085;49.452;8.502;2022-12-29T16:50:43;2.85;;;1.20;;
12048;SDS011;6085;49.452;8.502;2022-12-29T16:54:47;1.92;;;1.20;;
12048;SDS011;6085;49.452;8.502;2022-12-29T16:58:56;1.92;;;1.00;;
12048;SDS011;6085;49.452;8.502;2022-12-29T17:03:03;1.17;;;0.70;;
12048;SDS011;6085;49.452;8.502;2022-12-29T17:07:07;2.00;;;1.25;;
12048;SDS011;6085;49.452;8.502;2022-12-29T17:11:19;1.10;;;1.10;;
12048;SDS011;6085;49.452;8.502;2022-12-29T17:15:40;2.35;;;1.58;;
12048;SDS011;6085;49.452;8.502;2022-12-29T17:19:44;2.20;;;1.70;;
12048;SDS011;6085;49.452;8.502;2022-12-29T17:23:49;1.58;;;1.40;;
12048;SDS011;6085;49.452;8.502;2022-12-29T17:27:51;3.05;;;1.33;;
12048;SDS011;6085;49.452;8.502;2022-12-29T17:31:56;1.83;;;1.67;;
12048;SDS011;6085;49.452;8.502;2022-12-29T17:35:59;3.75;;;1.67;;
12048;SDS011;6085;49.452;8.502;2022-12-29T17:40:01;3.53;;;1.67;;
12048;SDS011;6085;49.452;8.502;2022-12-29T17:44:04;2.40;;;1.73;;
12048;SDS011;6085;49.452;8.502;2022-12-29T17:48:09;2.72;;;1.95;;
12048;SDS011;6085;49.452;8.502;2022-12-29T17:52:14;3.22;;;1.98;;
12048;SDS011;6085;49.452;8.502;2022-12-29T17:56:17;2.63;;;2.00;;
12048;SDS011;6085;49.452;8.502;2022-12-29T18:00:20;1.90;;;1.65;;
12048;SDS011;6085;49.452;8.502;2022-12-29T18:04:23;4.20;;;2.25;;
12048;SDS011;6085;49.452;8.502;2022-12-29T18:08:27;2.47;;;1.60;;
12048;SDS011;6085;49.452;8.502;2022-12-29T18:12:30;4.32;;;2.50;;
12048;SDS011;6085;49.452;8.502;2022-12-29T18:16:37;3.10;;;2.33;;
12048;SDS011;6085;49.452;8.502;2022-12-29T18:20:39;1.83;;;1.70;;
12048;SDS011;6085;49.452;8.502;2022-12-29T18:24:43;3.78;;;1.90;;
12048;SDS011;6085;49.452;8.502;2022-12-29T18:28:45;1.85;;;1.60;;
12048;SDS011;6085;49.452;8.502;2022-12-29T18:32:48;2.50;;;1.88;;
12048;SDS011;6085;49.452;8.502;2022-12-29T18:36:50;5.18;;;1.65;;
12048;SDS011;6085;49.452;8.502;2022-12-29T18:40:54;5.30;;;1.70;;
12048;SDS011;6085;49.452;8.502;2022-12-29T18:44:56;3.40;;;1.65;;
12048;SDS011;6085;49.452;8.502;2022-12-29T18:48:58;4.90;;;1.65;;
12048;SDS011;6085;49.452;8.502;2022-12-29T18:53:00;4.03;;;1.50;;
12048;SDS011;6085;49.452;8.502;2022-12-29T18:57:03;2.85;;;1.52;;
12048;SDS011;6085;49.452;8.502;2022-12-29T19:01:05;4.40;;;1.52;;
12048;SDS011;6085;49.452;8.502;2022-12-29T19:05:17;3.03;;;1.40;;
12048;SDS011;6085;49.452;8.502;2022-12-29T19:09:20;2.80;;;1.70;;
12048;SDS011;6085;49.452;8.502;2022-12-29T19:13:24;2.10;;;1.60;;
12048;SDS011;6085;49.452;8.502;2022-12-29T19:17:28;3.53;;;1.90;;
12048;SDS011;6085;49.452;8.502;2022-12-29T19:21:30;5.65;;;2.17;;
12048;SDS011;6085;49.452;8.502;2022-12-29T19:25:32;4.13;;;1.75;;
12048;SDS011;6085;49.452;8.502;2022-12-29T19:29:35;3.00;;;1.80;;
12048;SDS011;6085;49.452;8.502;2022-12-29T19:33:37;3.20;;;1.80;;
12048;SDS011;6085;49.452;8.502;2022-12-29T19:37:39;3.42;;;2.05;;
12048;SDS011;6085;49.452;8.502;2022-12-29T19:41:41;4.15;;;1.80;;
12048;SDS011;6085;49.452;8.502;2022-12-29T19:45:44;3.13;;;1.70;;
12048;SDS011;6085;49.452;8.502;2022-12-29T19:49:46;1.75;;;1.65;;
12048;SDS011;6085;49.452;8.502;2022-12-29T19:53:48;3.75;;;2.00;;
12048;SDS011;6085;49.452;8.502;2022-12-29T19:57:50;5.43;;;1.80;;
12048;SDS011;6085;49.452;8.502;2022-12-29T20:01:53;2.40;;;1.95;;
12048;SDS011;6085;49.452;8.502;2022-12-29T20:05:55;4.70;;;2.70;;
12048;SDS011;6085;49.452;8.502;2022-12-29T20:09:56;2.97;;;1.83;;
12048;SDS011;6085;49.452;8.502;2022-12-29T20:13:58;2.85;;;2.00;;
12048;SDS011;6085;49.452;8.502;2022-12-29T20:18:01;3.38;;;1.85;;
12048;SDS011;6085;49.452;8.502;2022-12-29T20:22:04;4.65;;;2.00;;
12048;SDS011;6085;49.452;8.502;2022-12-29T20:26:10;3.47;;;1.70;;
12048;SDS011;6085;49.452;8.502;2022-12-29T20:30:14;4.78;;;1.83;;
12048;SDS011;6085;49.452;8.502;2022-12-29T20:34:17;4.47;;;2.13;;
12048;SDS011;6085;49.452;8.502;2022-12-29T20:38:19;2.78;;;2.00;;
12048;SDS011;6085;49.452;8.502;2022-12-29T20:42:21;5.07;;;1.50;;
12048;SDS011;6085;49.452;8.502;2022-12-29T20:46:23;1.65;;;1.45;;
12048;SDS011;6085;49.452;8.502;2022-12-29T20:50:26;2.45;;;1.48;;
12048;SDS011;6085;49.452;8.502;2022-12-29T20:54:28;2.03;;;1.30;;
12048;SDS011;6085;49.452;8.502;2022-12-29T20:58:30;5.03;;;1.70;;
12048;SDS011;6085;49.452;8.502;2022-12-29T21:02:32;3.95;;;1.50;;
12048;SDS011;6085;49.452;8.502;2022-12-29T21:06:35;3.65;;;1.63;;
12048;SDS011;6085;49.452;8.502;2022-12-29T21:10:37;5.60;;;1.65;;
12048;SDS011;6085;49.452;8.502;2022-12-29T21:14:39;4.75;;;1.60;;
12048;SDS011;6085;49.452;8.502;2022-12-29T21:18:41;3.40;;;1.33;;
12048;SDS011;6085;49.452;8.502;2022-12-29T21:22:44;2.28;;;1.30;;
12048;SDS011;6085;49.452;8.502;2022-12-29T21:26:46;2.58;;;1.42;;
12048;SDS011;6085;49.452;8.502;2022-12-29T21:30:49;3.65;;;1.55;;
12048;SDS011;6085;49.452;8.502;2022-12-29T21:34:51;3.13;;;1.35;;
12048;SDS011;6085;49.452;8.502;2022-12-29T21:38:54;5.20;;;1.75;;
12048;SDS011;6085;49.452;8.502;2022-12-29T21:42:57;3.00;;;1.58;;
12048;SDS011;6085;49.452;8.502;2022-12-29T21:46:59;3.70;;;1.50;;
12048;SDS011;6085;49.452;8.502;2022-12-29T21:51:04;4.05;;;1.55;;
12048;SDS011;6085;49.452;8.502;2022-12-29T21:55:27;4.38;;;1.50;;
12048;SDS011;6085;49.452;8.502;2022-12-29T21:59:29;4.68;;;1.65;;
12048;SDS011;6085;49.452;8.502;2022-12-29T22:03:48;2.28;;;1.60;;
12048;SDS011;6085;49.452;8.502;2022-12-29T22:08:07;2.08;;;1.42;;
12048;SDS011;6085;49.452;8.502;2022-12-29T22:12:29;3.30;;;1.75;;
12048;SDS011;6085;49.452;8.502;2022-12-29T22:16:49;4.13;;;1.70;;
12048;SDS011;6085;49.452;8.502;2022-12-29T22:20:51;3.00;;;1.50;;
12048;SDS011;6085;49.452;8.502;2022-12-29T22:24:53;2.22;;;1.63;;
12048;SDS011;6085;49.452;8.502;2022-12-29T22:28:56;3.35;;;1.38;;
12048;SDS011;6085;49.452;8.502;2022-12-29T22:32:57;1.90;;;1.38;;
12048;SDS011;6085;49.452;8.502;2022-12-29T22:37:00;2.85;;;1.60;;
12048;SDS011;6085;49.452;8.502;2022-12-29T22:41:02;4.93;;;2.00;;
12048;SDS011;6085;49.452;8.502;2022-12-29T22:45:06;5.20;;;1.58;;
12048;SDS011;6085;49.452;8.502;2022-12-29T22:49:08;2.85;;;1.52;;
12048;SDS011;6085;49.452;8.502;2022-12-29T22:53:10;6.03;;;1.80;;
12048;SDS011;6085;49.452;8.502;2022-12-29T22:57:12;6.05;;;1.50;;
12048;SDS011;6085;49.452;8.502;2022-12-29T23:01:16;3.70;;;1.63;;
12048;SDS011;6085;49.452;8.502;2022-12-29T23:05:20;3.30;;;1.40;;
12048;SDS011;6085;49.452;8.502;2022-12-29T23:09:22;2.40;;;1.63;;
12048;SDS011;6085;49.452;8.502;2022-12-29T23:13:24;2.90;;;1.45;;
12048;SDS011;6085;49.452;8.502;2022-12-29T23:17:27;2.53;;;1.38;;
12048;SDS011;6085;49.452;8.502;2022-12-29T23:21:29;2.20;;;1.10;;
12048;SDS011;6085;49.452;8.502;2022-12-29T23:25:33;3.03;;;1.30;;
12048;SDS011;6085;49.452;8.502;2022-12-29T23:29:35;3.83;;;1.63;;
12048;SDS011;6085;49.452;8.502;2022-12-29T23:33:39;2.58;;;1.50;;
12048;SDS011;6085;49.452;8.502;2022-12-29T23:37:41;3.75;;;1.42;;
12048;SDS011;6085;49.452;8.502;2022-12-29T23:41:42;3.00;;;1.30;;
12048;SDS011;6085;49.452;8.502;2022-12-29T23:45:44;4.25;;;1.88;;
12048;SDS011;6085;49.452;8.502;2022-12-29T23:49:47;5.90;;;1.45;;
12048;SDS011;6085;49.452;8.502;2022-12-29T23:53:49;4.03;;;1.30;;
12048;SDS011;6085;49.452;8.502;2022-12-29T23:57:51;2.70;;;1.38;;
